Lykens, Pennsylvania
Current Conditions -  °F | °C
As of 8:58 AM on Tuesday 27 Jan 2015 (Local Time) from KMUI Reporting Station
Overcast Overcast  
Wind Chill: 17°   Ceiling: 9500
Heat Index: 24°   Visibility: 10mi
Dew Point: 15°   Wind: 6mph
Humidity: 69%   Direction: NA
Pressure: 29.79"   Gusts: 17mph
Location:  40.57°N, 76.7°W
Report Text: KMUI 271358Z AUTO VRB05G15KT 10SM FEW060 OVC095 M04/M09 A2979 RMK AO2 SLP097 T10431093
Loading
Personal Weather Stations






























Interactive Weather Map New forecast layout! Learn more

10-Day Weather Forecast

Advertisements
Track Severe Weather on mobile